Terminal Aerodrome Forecast
Issued by NWS

Home | Current Version | Previous Version | Text Only | Print | Product List | Glossary On
Versions: 1 2 3 4 5 6 7 8 9 10 11 12
778
FTUS46 KPDT 252326
TAFYKM
TAF
KYKM 252326Z 2600/2624 16005KT P6SM SKC
     FM260500 28007KT P6SM FEW200 SCT250
     FM261200 27008KT P6SM SCT150 BKN180
     FM261800 29008KT P6SM SCT150 SCT200=

USA.gov is the U.S. government's official web portal to all federal, state and local government web resources and services.